Time;durP1;ratioP1;P1;durP2;ratioP2;P2;SDS_P1;SDS_P2;PMS_P1;PMS_P2;Temp;Humidity;BMP_temperature;BMP_pressure;BME280_temperature;BME280_humidity;BME280_pressure;Samples;Min_cycle;Max_cycle;Signal;HPM_P1;HPM_P2
2023/01/28 00:02:07;;;;;;;19.08;8.68;;;6.60;54.30;;;;;;6170989;28;20129;-71
2023/01/28 00:05:08;;;;;;;15.80;6.90;;;6.40;54.40;;;;;;6162771;28;20074;-69
2023/01/28 00:08:10;;;;;;;15.27;7.85;;;6.40;54.40;;;;;;6118482;23;20047;-70
2023/01/28 00:11:12;;;;;;;16.20;6.90;;;6.50;54.50;;;;;;6219988;28;20049;-69
2023/01/28 00:14:13;;;;;;;13.80;7.63;;;6.50;54.50;;;;;;6221801;28;20080;-69
2023/01/28 00:17:15;;;;;;;18.10;7.20;;;6.50;54.50;;;;;;6209595;28;20029;-69
2023/01/28 00:20:16;;;;;;;15.80;7.35;;;6.40;54.40;;;;;;6222728;28;20022;-69
2023/01/28 00:23:17;;;;;;;16.95;7.75;;;6.40;54.70;;;;;;6211399;28;20038;-69
2023/01/28 00:26:18;;;;;;;16.42;7.00;;;6.40;54.40;;;;;;6205718;28;20033;-69
2023/01/28 00:29:19;;;;;;;14.95;6.97;;;6.40;54.40;;;;;;6220659;28;20048;-68
2023/01/28 00:32:21;;;;;;;21.40;6.75;;;6.40;54.50;;;;;;6207211;28;20144;-70
2023/01/28 00:35:28;;;;;;;15.38;7.07;;;6.40;54.40;;;;;;6211854;28;20033;-69
2023/01/28 00:38:41;;;;;;;16.50;6.22;;;6.40;54.40;;;;;;6217000;23;20107;-69
2023/01/28 00:41:42;;;;;;;16.05;8.15;;;6.50;54.50;;;;;;6277833;28;20076;-69
2023/01/28 00:44:43;;;;;;;15.23;5.57;;;6.50;54.50;;;;;;6277166;28;20040;-68
2023/01/28 00:47:44;;;;;;;17.27;8.57;;;6.50;54.50;;;;;;6278670;28;20017;-69
2023/01/28 00:50:46;;;;;;;15.35;7.05;;;6.50;54.50;;;;;;6276817;28;20416;-69
2023/01/28 00:53:48;;;;;;;18.95;6.95;;;6.50;54.40;;;;;;6277033;28;20408;-69
2023/01/28 00:56:52;;;;;;;19.95;7.53;;;6.50;54.40;;;;;;6278017;28;20032;-68
2023/01/28 00:59:53;;;;;;;14.30;6.70;;;6.50;54.30;;;;;;6276054;28;20028;-69
2023/01/28 01:02:55;;;;;;;14.82;7.22;;;6.50;54.30;;;;;;6258511;28;20473;-68
2023/01/28 01:05:56;;;;;;;14.68;6.90;;;6.50;54.40;;;;;;6274396;28;20086;-69
2023/01/28 01:08:57;;;;;;;15.93;7.00;;;6.40;54.30;;;;;;6273865;28;20115;-69
2023/01/28 01:11:58;;;;;;;13.88;7.10;;;6.40;54.40;;;;;;6276137;28;20028;-68
2023/01/28 01:15:00;;;;;;;13.95;6.47;;;6.40;54.40;;;;;;6276165;28;20035;-69
2023/01/28 01:18:00;;;;;;;14.63;6.15;;;6.40;54.40;;;;;;6274181;28;20116;-71
2023/01/28 01:21:06;;;;;;;16.98;6.78;;;6.30;54.30;;;;;;6274808;28;20033;-67
2023/01/28 01:24:07;;;;;;;16.80;6.68;;;6.30;54.20;;;;;;6274702;28;20025;-67
2023/01/28 01:27:08;;;;;;;13.38;6.85;;;6.30;54.20;;;;;;6274858;28;20051;-69
2023/01/28 01:30:09;;;;;;;24.75;8.18;;;6.40;54.20;;;;;;6274521;28;20036;-68
2023/01/28 01:33:10;;;;;;;15.27;7.00;;;6.30;54.10;;;;;;6273309;28;20557;-70
2023/01/28 01:36:13;;;;;;;19.10;7.57;;;6.30;54.10;;;;;;6274109;28;20037;-68
2023/01/28 01:39:14;;;;;;;15.13;7.70;;;6.30;54.20;;;;;;6272701;28;20025;-68
2023/01/28 01:42:15;;;;;;;18.73;6.72;;;6.30;54.20;;;;;;6273836;28;20063;-68
2023/01/28 01:45:16;;;;;;;13.23;6.10;;;6.30;54.30;;;;;;6274046;28;20037;-68
2023/01/28 01:52:06;;;;;;;12.57;6.65;;;6.30;54.10;;;;;;6294038;23;20050;-68
2023/01/28 01:55:44;;;;;;;18.17;7.30;;;6.30;54.20;;;;;;6221867;28;20030;-69
2023/01/28 01:58:48;;;;;;;14.48;6.72;;;6.30;54.30;;;;;;6204838;28;20034;-69
2023/01/28 02:01:49;;;;;;;24.35;7.75;;;6.30;54.20;;;;;;6221998;28;20437;-68
2023/01/28 02:04:51;;;;;;;13.85;6.88;;;6.40;54.10;;;;;;6213321;28;20040;-71
2023/01/28 02:08:19;;;;;;;19.48;7.95;;;6.40;54.10;;;;;;6196816;28;20030;-67
2023/01/28 02:11:18;;;;;;;19.50;7.85;;;6.40;54.20;;;;;;6197685;28;20037;-68
2023/01/28 02:14:22;;;;;;;15.68;6.85;;;6.40;54.10;;;;;;6180928;28;20039;-69
2023/01/28 02:17:24;;;;;;;19.23;8.30;;;6.40;54.20;;;;;;6181178;28;20034;-70
2023/01/28 02:20:37;;;;;;;21.40;8.30;;;6.40;54.20;;;;;;6250267;23;20073;-68
2023/01/28 02:24:00;;;;;;;14.07;7.38;;;6.40;54.20;;;;;;6231142;28;20037;-67
2023/01/28 02:27:44;;;;;;;15.85;8.30;;;6.40;54.20;;;;;;6231239;28;20596;-69
2023/01/28 02:31:18;;;;;;;15.23;6.47;;;6.40;54.30;;;;;;6230702;28;20029;-69
2023/01/28 02:34:43;;;;;;;18.27;6.97;;;6.40;54.30;;;;;;6229243;28;20136;-69
2023/01/28 02:37:51;;;;;;;18.85;7.15;;;6.40;54.30;;;;;;6247293;28;20033;-71
2023/01/28 02:41:08;;;;;;;17.17;6.43;;;6.30;54.20;;;;;;6274323;23;20382;-68
2023/01/28 02:44:09;;;;;;;20.25;6.80;;;6.30;54.30;;;;;;6255932;28;20029;-70
2023/01/28 02:50:53;;;;;;;20.85;7.45;;;6.30;54.30;;;;;;6247279;28;20030;-70
2023/01/28 02:54:10;;;;;;;13.23;6.55;;;6.00;54.30;;;;;;6229827;28;20140;-70
2023/01/28 02:57:29;;;;;;;15.85;7.22;;;6.30;54.40;;;;;;6247060;28;20546;-68
2023/01/28 03:00:53;;;;;;;15.50;7.40;;;6.30;54.50;;;;;;6177160;23;20047;-69
2023/01/28 03:04:00;;;;;;;17.73;6.90;;;6.20;54.50;;;;;;6106732;29;20452;-69
2023/01/28 03:07:06;;;;;;;13.80;5.85;;;6.20;54.60;;;;;;6138687;28;20113;-69
2023/01/28 03:10:12;;;;;;;12.15;6.55;;;6.10;54.60;;;;;;6122292;29;20035;-68
2023/01/28 03:37:46;;;;;;;15.07;6.45;;;6.00;54.80;;;;;;6121674;29;20449;-70
2023/01/28 03:41:03;;;;;;;12.65;7.05;;;6.00;54.70;;;;;;6373721;23;20167;-69
2023/01/28 03:47:28;;;;;;;16.35;7.03;;;6.00;54.70;;;;;;6245626;28;20029;-69
2023/01/28 03:50:29;;;;;;;17.70;6.75;;;6.00;54.80;;;;;;6245398;28;20033;-68
2023/01/28 03:53:34;;;;;;;16.98;8.15;;;5.90;54.80;;;;;;6229615;28;20064;-69
2023/01/28 03:56:36;;;;;;;13.18;6.25;;;5.90;54.80;;;;;;6245492;28;20396;-67
2023/01/28 03:59:37;;;;;;;15.35;6.85;;;5.90;54.90;;;;;;6228825;28;20468;-68
2023/01/28 04:02:39;;;;;;;18.42;7.45;;;5.90;54.90;;;;;;6228881;28;20033;-68
2023/01/28 04:05:57;;;;;;;15.80;6.38;;;5.90;55.00;;;;;;6247983;28;20402;-70
2023/01/28 04:09:01;;;;;;;17.33;7.35;;;5.90;55.10;;;;;;6237479;28;20040;-68
2023/01/28 04:12:22;;;;;;;17.15;7.43;;;5.90;55.00;;;;;;6276862;28;20033;-68
2023/01/28 04:15:25;;;;;;;15.80;7.07;;;5.90;55.10;;;;;;6278217;28;20021;-68
2023/01/28 04:18:28;;;;;;;18.38;7.18;;;5.90;55.10;;;;;;6277887;28;20036;-69
2023/01/28 04:21:31;;;;;;;13.27;6.70;;;5.90;55.10;;;;;;6278203;28;20416;-69
2023/01/28 04:24:34;;;;;;;19.48;6.70;;;5.80;55.00;;;;;;6277915;28;20040;-69
2023/01/28 04:27:35;;;;;;;18.88;8.02;;;5.80;55.00;;;;;;6261612;28;20043;-69
2023/01/28 04:30:46;;;;;;;11.40;5.55;;;5.80;55.10;;;;;;6263031;28;20484;-69
2023/01/28 04:34:05;;;;;;;18.55;7.03;;;5.80;55.20;;;;;;6280078;28;20037;-69
2023/01/28 04:37:25;;;;;;;16.55;7.30;;;5.80;55.20;;;;;;6279162;28;20040;-68
2023/01/28 04:41:29;;;;;;;14.73;6.38;;;5.80;55.10;;;;;;6157994;22;20143;-69
2023/01/28 04:44:53;;;;;;;16.63;7.25;;;5.80;55.30;;;;;;6133484;28;20446;-68
2023/01/28 04:48:13;;;;;;;18.77;7.93;;;5.90;55.10;;;;;;6142451;29;20043;-69
2023/01/28 04:51:29;;;;;;;19.40;7.75;;;5.90;55.10;;;;;;6129780;29;20039;-69
2023/01/28 04:54:50;;;;;;;23.95;7.47;;;5.90;55.10;;;;;;6122770;29;20151;-69
2023/01/28 04:57:51;;;;;;;22.73;8.43;;;5.80;55.00;;;;;;6128549;29;20410;-67
2023/01/28 05:01:14;;;;;;;16.00;6.40;;;5.80;55.00;;;;;;6249903;22;20047;-67
2023/01/28 05:04:16;;;;;;;21.80;7.65;;;5.80;55.20;;;;;;6159285;28;20112;-68
2023/01/28 05:07:17;;;;;;;20.80;8.98;;;5.80;55.10;;;;;;6152906;28;20027;-69
2023/01/28 05:10:20;;;;;;;15.93;7.28;;;5.80;55.00;;;;;;6201455;22;20508;-68
2023/01/28 05:13:24;;;;;;;15.30;7.40;;;5.80;55.00;;;;;;6128579;28;20024;-68
2023/01/28 05:16:25;;;;;;;19.15;7.90;;;5.90;55.10;;;;;;6127760;29;20027;-71
2023/01/28 05:19:27;;;;;;;19.70;8.48;;;5.90;54.90;;;;;;6128303;28;20427;-69
2023/01/28 05:22:31;;;;;;;14.15;7.20;;;5.90;54.90;;;;;;6224634;28;20039;-68
2023/01/28 05:25:52;;;;;;;19.10;7.55;;;5.90;54.80;;;;;;6194417;28;20035;-69
2023/01/28 05:28:53;;;;;;;15.23;8.05;;;5.90;54.70;;;;;;6299142;23;20077;-69
2023/01/28 05:31:55;;;;;;;24.17;7.82;;;5.80;54.80;;;;;;6273432;28;20059;-70
2023/01/28 05:34:56;;;;;;;19.70;7.20;;;5.80;54.90;;;;;;6256736;28;20037;-68
2023/01/28 05:41:14;;;;;;;15.55;6.70;;;5.90;55.10;;;;;;6297143;23;20053;-70
2023/01/28 05:44:17;;;;;;;19.75;6.63;;;5.90;55.00;;;;;;6265263;28;20029;-68
2023/01/28 05:47:42;;;;;;;12.68;6.35;;;5.80;54.90;;;;;;6197453;28;20435;-68
2023/01/28 05:51:04;;;;;;;18.35;7.68;;;5.90;55.50;;;;;;6167033;28;20038;-68
2023/01/28 05:54:19;;;;;;;16.50;8.05;;;5.90;55.00;;;;;;6158002;28;20187;-69
2023/01/28 05:57:23;;;;;;;14.48;5.85;;;5.90;54.80;;;;;;6157227;28;20104;-68
2023/01/28 06:00:31;;;;;;;14.38;6.65;;;5.90;54.80;;;;;;6117811;23;20040;-70
2023/01/28 06:03:32;;;;;;;25.65;8.05;;;5.90;55.00;;;;;;6115422;28;20400;-67
2023/01/28 06:06:33;;;;;;;19.10;6.72;;;6.00;55.00;;;;;;6100355;28;20059;-69
2023/01/28 06:09:34;;;;;;;15.60;6.90;;;6.00;55.00;;;;;;6115568;28;20688;-70
2023/01/28 06:12:35;;;;;;;19.33;8.05;;;6.00;54.90;;;;;;6099877;29;20039;-68
2023/01/28 06:15:56;;;;;;;19.00;6.95;;;6.00;55.00;;;;;;6148951;28;20031;-68
2023/01/28 06:19:01;;;;;;;16.13;7.35;;;6.00;55.50;;;;;;6085425;28;20031;-68
2023/01/28 06:22:01;;;;;;;16.05;7.63;;;6.00;54.80;;;;;;6148967;29;20035;-68
2023/01/28 06:25:05;;;;;;;15.98;7.80;;;6.00;54.80;;;;;;6083341;29;20126;-69
2023/01/28 06:28:07;;;;;;;15.93;7.13;;;6.00;54.90;;;;;;6082338;28;20039;-69
2023/01/28 06:31:07;;;;;;;15.50;6.93;;;6.00;54.90;;;;;;6147974;28;20028;-69
2023/01/28 06:34:09;;;;;;;15.57;6.45;;;6.00;55.00;;;;;;6148430;29;20543;-68
2023/01/28 06:37:13;;;;;;;16.95;7.82;;;6.00;55.00;;;;;;6148917;29;20031;-70
2023/01/28 06:40:14;;;;;;;19.92;7.18;;;6.00;55.00;;;;;;6148439;29;20162;-69
2023/01/28 06:43:15;;;;;;;15.77;7.25;;;6.00;55.00;;;;;;6148590;29;20039;-69
2023/01/28 06:46:23;;;;;;;13.73;6.07;;;6.00;55.10;;;;;;6148767;29;20407;-69
2023/01/28 06:53:54;;;;;;;11.98;5.57;;;5.80;55.20;;;;;;6248080;28;19913;-70
2023/01/28 06:56:55;;;;;;;19.40;8.18;;;5.90;55.40;;;;;;6246669;28;20490;-70
2023/01/28 06:59:56;;;;;;;12.45;5.93;;;5.90;55.30;;;;;;6246665;28;20125;-70
2023/01/28 07:02:57;;;;;;;13.15;6.97;;;5.90;55.40;;;;;;6230378;28;20033;-68
2023/01/28 07:05:59;;;;;;;15.70;7.20;;;6.00;56.00;;;;;;6238483;28;20479;-69
2023/01/28 07:08:59;;;;;;;12.88;6.38;;;5.90;55.40;;;;;;6239463;22;20121;-69
2023/01/28 07:12:04;;;;;;;13.02;6.47;;;5.90;55.60;;;;;;6147523;29;20374;-69
2023/01/28 07:15:05;;;;;;;15.27;5.65;;;5.90;55.70;;;;;;6246924;28;20479;-71
2023/01/28 07:18:06;;;;;;;15.60;5.40;;;5.90;55.70;;;;;;6146225;29;20036;-69
2023/01/28 07:21:07;;;;;;;21.98;7.95;;;5.90;55.60;;;;;;6148234;28;20040;-70
2023/01/28 07:24:08;;;;;;;16.00;6.03;;;5.90;55.60;;;;;;6153128;29;20055;-68
2023/01/28 07:27:09;;;;;;;22.23;7.00;;;6.00;55.60;;;;;;6139059;29;20039;-70
2023/01/28 07:30:11;;;;;;;16.27;6.90;;;6.00;55.50;;;;;;6099617;28;20024;-71
2023/01/28 07:33:11;;;;;;;14.25;6.35;;;5.90;55.50;;;;;;6099730;29;20481;-69
2023/01/28 07:36:12;;;;;;;12.57;5.68;;;5.90;55.50;;;;;;6114388;28;20039;-68
2023/01/28 07:39:13;;;;;;;10.80;5.13;;;5.90;55.50;;;;;;6099359;29;20036;-71
2023/01/28 07:42:14;;;;;;;17.45;6.72;;;5.90;55.60;;;;;;6113665;28;20040;-69
2023/01/28 07:49:27;;;;;;;16.00;6.13;;;5.90;55.50;;;;;;6170088;28;20043;-69
2023/01/28 07:52:28;;;;;;;17.13;6.20;;;5.90;55.70;;;;;;6192628;28;20053;-73
2023/01/28 07:55:29;;;;;;;17.83;6.40;;;5.90;55.80;;;;;;6178821;28;20064;-68
2023/01/28 07:58:31;;;;;;;10.63;5.50;;;5.80;55.90;;;;;;6194859;28;20038;-68
2023/01/28 08:01:32;;;;;;;12.45;5.82;;;5.80;56.00;;;;;;6195062;28;20048;-69
2023/01/28 08:04:33;;;;;;;17.20;5.88;;;5.80;55.90;;;;;;6194614;28;20038;-68
2023/01/28 08:07:34;;;;;;;16.02;6.80;;;5.90;55.90;;;;;;6178205;28;20043;-69
2023/01/28 08:10:35;;;;;;;17.88;6.35;;;5.90;55.90;;;;;;6194764;28;20065;-69
2023/01/28 08:13:36;;;;;;;20.38;7.38;;;5.90;56.50;;;;;;6178762;28;20105;-69
2023/01/28 08:16:37;;;;;;;13.30;6.72;;;5.90;55.90;;;;;;6194882;28;20101;-69
2023/01/28 08:19:41;;;;;;;19.77;7.18;;;5.90;56.00;;;;;;6194696;28;20049;-74
2023/01/28 08:22:42;;;;;;;15.75;7.15;;;5.90;56.10;;;;;;6164249;28;20028;-75
2023/01/28 08:25:45;;;;;;;13.43;6.82;;;5.90;56.20;;;;;;6082296;29;20435;-70
2023/01/28 08:28:46;;;;;;;18.67;6.22;;;5.90;56.30;;;;;;6205611;23;20045;-71
2023/01/28 08:31:47;;;;;;;20.58;7.47;;;6.00;56.20;;;;;;6144937;28;20042;-70
2023/01/28 08:34:48;;;;;;;17.38;6.47;;;6.00;56.10;;;;;;6128775;28;20047;-69
2023/01/28 08:37:49;;;;;;;15.40;6.95;;;6.10;56.20;;;;;;6144814;28;20078;-69
2023/01/28 08:40:54;;;;;;;20.13;8.15;;;6.10;56.10;;;;;;6128579;29;20031;-69
2023/01/28 08:43:55;;;;;;;13.45;6.53;;;6.20;56.10;;;;;;6123587;28;20074;-71
2023/01/28 08:47:02;;;;;;;17.27;7.88;;;6.30;55.90;;;;;;6106919;28;20039;-70
2023/01/28 08:50:03;;;;;;;19.13;7.28;;;6.30;55.90;;;;;;6132065;28;20371;-70
2023/01/28 08:53:08;;;;;;;16.30;6.50;;;6.30;55.90;;;;;;6130718;28;20035;-69
2023/01/28 08:56:10;;;;;;;12.90;6.38;;;6.40;56.00;;;;;;6131960;28;20027;-69
2023/01/28 08:59:11;;;;;;;17.50;7.20;;;6.50;55.80;;;;;;6148119;28;20077;-69
2023/01/28 09:02:13;;;;;;;18.23;8.50;;;6.60;55.70;;;;;;6147520;28;20110;-69
2023/01/28 09:05:15;;;;;;;14.73;7.28;;;6.60;55.50;;;;;;6148409;28;20047;-70
2023/01/28 09:08:16;;;;;;;16.65;6.85;;;6.50;55.50;;;;;;6147975;28;20176;-69
2023/01/28 09:11:17;;;;;;;15.70;6.72;;;6.50;55.60;;;;;;6215616;28;20027;-68
2023/01/28 09:14:18;;;;;;;22.38;8.05;;;6.50;56.20;;;;;;6149290;28;20093;-70
2023/01/28 09:17:20;;;;;;;19.58;8.52;;;6.40;55.70;;;;;;6147763;28;20122;-69
2023/01/28 09:20:21;;;;;;;21.52;7.55;;;6.40;55.80;;;;;;6159178;28;20078;-70
2023/01/28 09:23:22;;;;;;;15.52;7.15;;;6.40;55.90;;;;;;6107891;28;20456;-70
2023/01/28 09:26:24;;;;;;;22.08;7.57;;;6.30;56.00;;;;;;6108686;28;20032;-70
2023/01/28 09:29:25;;;;;;;20.38;7.70;;;6.40;56.10;;;;;;6111857;29;20027;-70
2023/01/28 09:32:27;;;;;;;14.63;7.38;;;6.40;56.00;;;;;;6148079;28;20041;-70
2023/01/28 09:35:29;;;;;;;17.38;8.60;;;6.40;56.00;;;;;;6150202;28;20097;-69
2023/01/28 09:38:31;;;;;;;15.90;7.55;;;6.50;55.90;;;;;;6156729;28;20038;-71
2023/01/28 09:42:00;;;;;;;16.63;8.00;;;6.50;56.00;;;;;;6148902;28;20506;-69
2023/01/28 09:45:12;;;;;;;21.95;8.63;;;6.50;56.00;;;;;;6131359;28;20035;-70
2023/01/28 09:48:17;;;;;;;23.70;7.88;;;6.50;55.80;;;;;;6146772;28;20027;-69
2023/01/28 09:51:41;;;;;;;23.83;7.13;;;6.50;55.80;;;;;;6163778;28;20024;-70
2023/01/28 09:54:59;;;;;;;16.95;8.00;;;6.50;55.80;;;;;;6147296;28;20062;-67
2023/01/28 09:58:01;;;;;;;21.88;7.53;;;6.50;55.90;;;;;;6130815;28;20447;-69
2023/01/28 10:01:35;;;;;;;21.23;7.78;;;6.50;55.80;;;;;;6146372;28;20066;-69
2023/01/28 10:05:08;;;;;;;38.03;8.45;;;6.40;55.90;;;;;;6082712;28;20036;-69
2023/01/28 10:08:51;;;;;;;13.00;7.25;;;6.50;55.90;;;;;;6063585;29;20098;-69
2023/01/28 10:12:07;;;;;;;17.85;7.38;;;6.50;55.90;;;;;;6097716;29;20083;-69
2023/01/28 10:15:27;;;;;;;18.98;7.50;;;6.40;55.90;;;;;;6048928;29;20404;-69
2023/01/28 10:18:45;;;;;;;13.57;7.57;;;6.40;56.00;;;;;;6089419;29;20126;-67
2023/01/28 10:21:53;;;;;;;11.65;5.13;;;6.40;55.90;;;;;;6105469;29;20190;-69
2023/01/28 10:25:05;;;;;;;;;;;6.40;55.80;;;;;;6090073;28;20047;-67
2023/01/28 10:28:18;;;;;;;13.90;6.20;;;6.40;55.80;;;;;;6089249;29;19994;-69
2023/01/28 10:31:22;;;;;;;17.83;6.60;;;6.40;55.80;;;;;;6058721;29;20056;-69
2023/01/28 10:34:23;;;;;;;17.30;7.32;;;6.40;55.80;;;;;;6058440;29;20413;-71
2023/01/28 10:37:24;;;;;;;15.68;7.18;;;6.40;55.90;;;;;;6058343;29;20140;-68
2023/01/28 10:40:25;;;;;;;15.38;8.15;;;6.40;55.90;;;;;;6081486;28;20039;-69
2023/01/28 10:43:31;;;;;;;18.20;6.93;;;6.30;55.80;;;;;;6147236;28;20392;-69
2023/01/28 10:46:35;;;;;;;16.33;7.80;;;6.30;55.80;;;;;;6130078;28;20383;-68
2023/01/28 10:49:42;;;;;;;18.05;8.57;;;6.40;55.90;;;;;;6146065;28;20506;-68
2023/01/28 10:52:54;;;;;;;19.00;8.85;;;6.40;55.80;;;;;;6146065;28;20031;-69
2023/01/28 10:55:59;;;;;;;19.08;8.52;;;6.40;55.80;;;;;;6147057;28;20031;-70
2023/01/28 10:59:05;;;;;;;14.77;7.32;;;6.40;55.80;;;;;;6147147;28;20119;-67
2023/01/28 11:02:21;;;;;;;17.45;7.45;;;6.50;55.70;;;;;;6147103;28;20031;-67
2023/01/28 11:05:26;;;;;;;15.82;6.85;;;6.50;55.60;;;;;;6131841;28;20038;-68
2023/01/28 11:08:29;;;;;;;16.80;6.82;;;6.50;55.40;;;;;;6122221;29;20040;-69
2023/01/28 11:11:30;;;;;;;15.85;7.65;;;6.60;55.40;;;;;;6126102;29;20471;-69
2023/01/28 11:14:31;;;;;;;18.73;9.20;;;6.60;55.50;;;;;;6145828;28;20343;-68
2023/01/28 11:17:34;;;;;;;31.58;9.73;;;6.60;55.40;;;;;;6144573;28;20042;-70
2023/01/28 11:20:41;;;;;;;15.43;7.75;;;6.60;55.40;;;;;;6145821;28;20031;-69
2023/01/28 11:23:51;;;;;;;22.73;8.18;;;6.60;55.20;;;;;;6146583;28;20031;-71
2023/01/28 11:26:55;;;;;;;17.10;8.27;;;6.60;55.10;;;;;;6146669;28;20049;-69
2023/01/28 11:30:01;;;;;;;21.27;9.70;;;6.60;55.30;;;;;;6145812;28;20031;-68
2023/01/28 11:33:15;;;;;;;18.08;7.53;;;6.60;55.30;;;;;;6146238;28;20479;-68
2023/01/28 11:36:19;;;;;;;16.80;8.27;;;6.60;55.30;;;;;;6146511;28;20027;-69
2023/01/28 11:39:27;;;;;;;17.92;7.20;;;6.60;55.30;;;;;;6145573;28;20043;-67
2023/01/28 11:42:29;;;;;;;23.92;8.10;;;6.60;55.10;;;;;;6146222;28;20036;-70
2023/01/28 11:45:55;;;;;;;17.63;7.60;;;6.60;55.00;;;;;;6144747;29;20607;-69
2023/01/28 11:49:44;;;;;;;17.95;7.82;;;6.60;55.00;;;;;;6146294;28;20505;-69
2023/01/28 11:52:45;;;;;;;16.52;7.43;;;6.70;55.00;;;;;;6179853;28;20039;-71
2023/01/28 11:56:16;;;;;;;16.40;7.53;;;6.70;54.80;;;;;;6181834;28;20086;-70
2023/01/28 11:59:38;;;;;;;15.27;7.40;;;6.70;54.70;;;;;;6162192;28;20030;-69
2023/01/28 12:02:51;;;;;;;20.92;7.60;;;6.70;54.70;;;;;;6194751;28;20152;-70
2023/01/28 12:06:11;;;;;;;18.90;7.45;;;6.60;54.70;;;;;;6178272;28;20046;-70
2023/01/28 12:09:38;;;;;;;19.00;8.77;;;6.60;54.80;;;;;;6194178;28;20038;-69
2023/01/28 12:12:54;;;;;;;17.50;7.80;;;6.70;54.80;;;;;;6178652;28;20458;-71
2023/01/28 12:16:14;;;;;;;20.88;10.48;;;6.70;54.80;;;;;;6178547;28;20066;-68
2023/01/28 12:19:52;;;;;;;16.70;7.50;;;6.70;54.70;;;;;;6194343;28;20387;-68
2023/01/28 12:23:04;;;;;;;20.23;8.82;;;6.80;54.60;;;;;;6156423;28;20414;-67
2023/01/28 12:26:12;;;;;;;21.98;8.65;;;6.80;54.40;;;;;;6194746;28;20042;-69
2023/01/28 12:29:30;;;;;;;18.65;7.72;;;6.80;54.40;;;;;;6155953;28;20061;-69
2023/01/28 12:33:07;;;;;;;19.10;8.70;;;6.80;54.30;;;;;;6149072;28;20041;-71
2023/01/28 12:36:29;;;;;;;17.75;7.53;;;6.80;54.30;;;;;;6149955;28;20039;-70
2023/01/28 12:39:33;;;;;;;14.57;7.25;;;6.70;54.20;;;;;;6149262;28;20373;-71
2023/01/28 12:42:34;;;;;;;22.30;9.70;;;6.70;54.30;;;;;;6148623;28;20024;-68
2023/01/28 12:45:39;;;;;;;21.77;9.35;;;6.80;54.30;;;;;;6149100;28;20053;-68
2023/01/28 12:48:46;;;;;;;22.10;9.15;;;6.90;54.30;;;;;;6147324;28;20059;-67
2023/01/28 12:52:08;;;;;;;19.92;7.43;;;6.90;54.20;;;;;;6149560;28;20092;-68
2023/01/28 12:55:20;;;;;;;23.85;8.50;;;6.80;54.00;;;;;;6153345;28;20079;-69
2023/01/28 12:58:38;;;;;;;19.00;7.68;;;6.80;53.90;;;;;;6152423;28;20447;-67
2023/01/28 13:01:56;;;;;;;15.30;6.72;;;6.80;54.10;;;;;;6149106;28;20529;-68
2023/01/28 13:05:21;;;;;;;16.02;6.90;;;6.80;54.10;;;;;;6147754;28;20051;-69
2023/01/28 13:08:28;;;;;;;25.58;10.38;;;6.80;54.10;;;;;;6149027;28;20122;-68
2023/01/28 13:11:34;;;;;;;16.10;7.50;;;6.90;54.10;;;;;;6148813;28;20035;-69
2023/01/28 13:14:36;;;;;;;17.88;8.50;;;6.90;54.00;;;;;;6149328;28;20062;-70
2023/01/28 13:17:36;;;;;;;20.65;9.13;;;6.90;53.90;;;;;;6147280;29;20113;-69
2023/01/28 13:20:49;;;;;;;19.23;8.43;;;6.90;53.80;;;;;;6148717;28;20043;-66
2023/01/28 13:24:17;;;;;;;18.60;7.82;;;7.00;53.80;;;;;;6148627;29;20035;-67
2023/01/28 13:27:25;;;;;;;17.27;8.02;;;7.00;53.70;;;;;;6150616;28;20049;-68
2023/01/28 13:30:48;;;;;;;18.83;9.13;;;7.00;53.60;;;;;;6193258;22;20049;-70
2023/01/28 13:33:52;;;;;;;17.10;7.68;;;7.10;53.50;;;;;;6180389;28;20041;-68
2023/01/28 13:36:54;;;;;;;18.63;7.85;;;7.10;53.20;;;;;;6179109;28;20044;-70
2023/01/28 13:40:26;;;;;;;13.63;7.53;;;7.10;53.20;;;;;;6170259;28;20033;-71
2023/01/28 13:43:36;;;;;;;19.67;8.48;;;7.00;53.30;;;;;;6154780;28;20375;-70
2023/01/28 13:46:38;;;;;;;21.65;8.23;;;7.10;53.30;;;;;;6185552;28;20171;-69
2023/01/28 13:50:13;;;;;;;16.27;7.43;;;7.10;53.20;;;;;;6193499;28;20075;-69
2023/01/28 13:53:32;;;;;;;16.35;7.63;;;7.20;53.10;;;;;;6164813;28;20424;-69
2023/01/28 13:56:37;;;;;;;18.40;8.70;;;7.20;52.90;;;;;;6194750;28;20023;-70
2023/01/28 14:00:06;;;;;;;15.57;7.05;;;7.20;52.70;;;;;;6194414;28;20025;-68
2023/01/28 14:03:55;;;;;;;14.73;7.03;;;7.20;52.90;;;;;;6278268;28;20105;-70
2023/01/28 14:07:31;;;;;;;13.93;6.85;;;7.20;52.80;;;;;;6279094;28;20036;-71
2023/01/28 14:10:40;;;;;;;19.88;9.13;;;7.10;52.80;;;;;;6262455;28;20025;-71
2023/01/28 14:14:18;;;;;;;18.63;7.13;;;7.10;52.90;;;;;;6261882;28;20054;-67
2023/01/28 14:17:44;;;;;;;15.63;7.03;;;7.10;52.90;;;;;;6179958;28;20491;-67
2023/01/28 14:20:46;;;;;;;19.15;8.57;;;7.20;52.80;;;;;;6197244;28;20038;-67
2023/01/28 14:23:53;;;;;;;18.75;8.90;;;7.20;53.30;;;;;;6182026;28;20105;-67
2023/01/28 14:27:00;;;;;;;18.65;7.80;;;6.90;52.50;;;;;;6204682;28;20022;-69
2023/01/28 14:30:51;;;;;;;20.05;7.93;;;7.10;52.60;;;;;;6189264;28;20025;-69
2023/01/28 14:33:53;;;;;;;25.42;8.65;;;7.20;52.70;;;;;;6133330;28;20040;-67
2023/01/28 14:37:17;;;;;;;14.63;7.10;;;7.10;52.60;;;;;;6043104;29;20534;-68
2023/01/28 14:40:24;;;;;;;18.90;8.13;;;7.20;52.80;;;;;;6057432;28;20044;-68
2023/01/28 14:43:26;;;;;;;19.05;8.55;;;7.20;52.80;;;;;;6024458;29;20041;-69
2023/01/28 14:46:43;;;;;;;18.00;7.78;;;7.20;52.70;;;;;;6035648;28;20037;-70
2023/01/28 14:50:01;;;;;;;16.83;7.38;;;7.20;52.80;;;;;;6033742;28;20033;-68
2023/01/28 14:53:15;;;;;;;23.30;7.88;;;7.20;52.80;;;;;;6053422;28;20531;-69
2023/01/28 14:56:51;;;;;;;21.02;8.35;;;7.20;52.80;;;;;;6092589;28;20110;-71
2023/01/28 14:59:56;;;;;;;18.30;8.65;;;7.20;52.70;;;;;;6208075;28;20089;-69
2023/01/28 15:02:58;;;;;;;17.27;7.88;;;7.20;52.80;;;;;;6112503;28;20521;-67
2023/01/28 15:06:12;;;;;;;19.23;8.23;;;7.20;52.70;;;;;;6112575;28;20027;-68
2023/01/28 15:09:13;;;;;;;17.40;7.13;;;7.20;52.90;;;;;;6119150;28;20046;-68
2023/01/28 15:12:16;;;;;;;17.55;8.90;;;7.20;52.80;;;;;;6153534;28;20475;-68
2023/01/28 15:15:29;;;;;;;19.95;8.35;;;7.20;52.90;;;;;;6169793;28;20034;-69
2023/01/28 15:18:35;;;;;;;36.78;8.95;;;7.10;52.90;;;;;;6152891;28;20479;-70
2023/01/28 15:21:37;;;;;;;16.08;7.40;;;7.10;53.50;;;;;;6153363;28;20046;-70
2023/01/28 15:24:44;;;;;;;17.13;6.45;;;7.10;52.90;;;;;;6168960;28;20035;-71
2023/01/28 15:27:46;;;;;;;19.90;8.98;;;7.10;52.90;;;;;;6152373;28;20107;-68
2023/01/28 15:30:47;;;;;;;23.10;9.00;;;7.10;53.00;;;;;;6282089;23;20048;-69
2023/01/28 15:34:12;;;;;;;22.55;9.02;;;7.10;53.10;;;;;;6244820;28;20493;-72
2023/01/28 15:37:13;;;;;;;18.70;7.43;;;7.00;53.10;;;;;;6222235;28;20069;-68
2023/01/28 15:40:19;;;;;;;17.25;8.05;;;7.00;53.10;;;;;;6245736;28;20029;-69
2023/01/28 15:43:33;;;;;;;19.42;9.07;;;6.90;53.10;;;;;;6246788;28;20039;-70
2023/01/28 15:46:38;;;;;;;20.48;7.68;;;6.90;53.20;;;;;;6244705;28;20025;-69
2023/01/28 15:49:43;;;;;;;20.75;8.50;;;6.90;53.20;;;;;;6246123;28;20100;-68
2023/01/28 15:52:45;;;;;;;22.75;7.95;;;6.90;53.20;;;;;;6261599;28;20032;-70
2023/01/28 15:55:46;;;;;;;21.13;7.47;;;6.90;53.30;;;;;;6261552;28;20120;-66
2023/01/28 15:58:46;;;;;;;20.25;7.53;;;6.80;53.30;;;;;;6261424;28;20396;-70
2023/01/28 16:01:47;;;;;;;17.33;7.30;;;6.90;53.30;;;;;;6245399;28;20161;-68
2023/01/28 16:04:56;;;;;;;16.63;6.72;;;6.90;53.20;;;;;;6245349;28;20159;-68
2023/01/28 16:11:31;;;;;;;20.42;8.88;;;6.90;53.10;;;;;;6119891;29;20059;-69
2023/01/28 16:14:45;;;;;;;16.95;8.60;;;7.00;53.20;;;;;;6120296;28;20034;-67
2023/01/28 16:17:49;;;;;;;15.90;7.18;;;6.90;53.20;;;;;;6121922;29;20024;-68
2023/01/28 16:20:53;;;;;;;17.25;8.05;;;6.90;53.20;;;;;;6122947;23;20074;-69
2023/01/28 16:24:08;;;;;;;23.98;8.65;;;7.60;53.50;;;;;;6097314;29;20112;-70
2023/01/28 16:27:23;;;;;;;19.00;8.88;;;6.90;53.20;;;;;;6099755;29;20481;-68
2023/01/28 16:30:24;;;;;;;25.35;8.00;;;6.90;53.10;;;;;;6101078;29;20029;-69
2023/01/28 16:33:25;;;;;;;14.70;7.22;;;6.90;53.10;;;;;;6097566;28;20036;-68
2023/01/28 16:36:26;;;;;;;25.80;8.25;;;6.90;53.10;;;;;;6098287;29;20036;-70
2023/01/28 16:39:28;;;;;;;25.38;8.23;;;6.90;53.10;;;;;;6096833;28;20100;-70
2023/01/28 16:42:31;;;;;;;21.42;8.45;;;6.90;53.10;;;;;;6096874;29;20056;-69
2023/01/28 16:45:31;;;;;;;25.33;8.45;;;6.90;53.10;;;;;;6098508;29;20551;-69
2023/01/28 16:48:32;;;;;;;18.38;6.88;;;6.90;53.10;;;;;;6096806;29;20024;-69
2023/01/28 16:51:34;;;;;;;16.48;7.28;;;6.80;53.10;;;;;;6096860;29;20183;-68
2023/01/28 16:54:36;;;;;;;19.33;7.35;;;6.70;53.10;;;;;;6195357;28;21005;-68
2023/01/28 16:57:37;;;;;;;16.90;6.25;;;6.70;53.20;;;;;;6097937;29;20036;-69
2023/01/28 17:00:38;;;;;;;17.40;6.68;;;6.70;53.30;;;;;;6100450;29;20059;-67
2023/01/28 17:03:39;;;;;;;23.00;8.27;;;6.80;53.30;;;;;;6103897;29;20204;-67
2023/01/28 17:06:43;;;;;;;26.95;9.20;;;6.80;53.20;;;;;;6100325;29;20027;-69
2023/01/28 17:09:43;;;;;;;17.10;7.57;;;6.80;53.20;;;;;;6105607;29;20028;-68
2023/01/28 17:12:47;;;;;;;17.88;8.68;;;6.80;53.10;;;;;;6108395;29;20033;-69